sensor_id;sensor_type;location;lat;lon;timestamp;temperature;humidity
42907;DHT22;28552;51.146;6.576;2022-07-29T00:01:54;19.00;78.70
42907;DHT22;28552;51.146;6.576;2022-07-29T00:04:54;19.00;78.90
42907;DHT22;28552;51.146;6.576;2022-07-29T00:07:55;19.00;79.00
42907;DHT22;28552;51.146;6.576;2022-07-29T00:10:55;19.00;78.90
42907;DHT22;28552;51.146;6.576;2022-07-29T00:13:56;19.00;79.10
42907;DHT22;28552;51.146;6.576;2022-07-29T00:16:57;19.00;79.10
42907;DHT22;28552;51.146;6.576;2022-07-29T00:19:57;19.00;79.00
42907;DHT22;28552;51.146;6.576;2022-07-29T00:22:58;19.00;78.90
42907;DHT22;28552;51.146;6.576;2022-07-29T00:25:58;19.10;79.20
42907;DHT22;28552;51.146;6.576;2022-07-29T00:29:00;19.10;79.50
42907;DHT22;28552;51.146;6.576;2022-07-29T00:32:02;19.00;80.00
42907;DHT22;28552;51.146;6.576;2022-07-29T00:35:03;18.90;80.30
42907;DHT22;28552;51.146;6.576;2022-07-29T00:38:19;18.90;80.80
42907;DHT22;28552;51.146;6.576;2022-07-29T00:41:20;18.80;81.30
42907;DHT22;28552;51.146;6.576;2022-07-29T00:44:21;18.70;82.00
42907;DHT22;28552;51.146;6.576;2022-07-29T00:47:21;18.60;82.70
42907;DHT22;28552;51.146;6.576;2022-07-29T00:50:22;18.50;83.30
42907;DHT22;28552;51.146;6.576;2022-07-29T00:53:24;18.50;83.80
42907;DHT22;28552;51.146;6.576;2022-07-29T00:56:25;18.40;84.50
42907;DHT22;28552;51.146;6.576;2022-07-29T00:59:26;18.30;85.10
42907;DHT22;28552;51.146;6.576;2022-07-29T01:02:27;18.30;85.40
42907;DHT22;28552;51.146;6.576;2022-07-29T01:05:28;18.20;85.90
42907;DHT22;28552;51.146;6.576;2022-07-29T01:08:30;18.20;86.30
42907;DHT22;28552;51.146;6.576;2022-07-29T01:11:31;18.10;86.50
42907;DHT22;28552;51.146;6.576;2022-07-29T01:14:33;18.20;86.80
42907;DHT22;28552;51.146;6.576;2022-07-29T01:17:39;18.20;87.00
42907;DHT22;28552;51.146;6.576;2022-07-29T01:21:03;18.20;87.00
42907;DHT22;28552;51.146;6.576;2022-07-29T01:24:20;18.30;87.10
42907;DHT22;28552;51.146;6.576;2022-07-29T01:27:41;18.30;87.50
42907;DHT22;28552;51.146;6.576;2022-07-29T01:30:46;18.30;87.80
42907;DHT22;28552;51.146;6.576;2022-07-29T01:33:52;18.30;88.00
42907;DHT22;28552;51.146;6.576;2022-07-29T01:43:32;18.30;87.60
42907;DHT22;28552;51.146;6.576;2022-07-29T01:46:39;18.30;87.30
42907;DHT22;28552;51.146;6.576;2022-07-29T01:49:47;18.30;87.50
42907;DHT22;28552;51.146;6.576;2022-07-29T01:52:56;18.30;87.60
42907;DHT22;28552;51.146;6.576;2022-07-29T01:55:57;18.20;87.70
42907;DHT22;28552;51.146;6.576;2022-07-29T01:59:01;18.20;88.00
42907;DHT22;28552;51.146;6.576;2022-07-29T02:02:04;18.10;88.40
42907;DHT22;28552;51.146;6.576;2022-07-29T02:05:10;18.00;89.10
42907;DHT22;28552;51.146;6.576;2022-07-29T02:08:13;17.90;89.50
42907;DHT22;28552;51.146;6.576;2022-07-29T02:11:15;17.80;89.40
42907;DHT22;28552;51.146;6.576;2022-07-29T02:14:19;17.80;89.10
42907;DHT22;28552;51.146;6.576;2022-07-29T02:17:26;17.80;88.90
42907;DHT22;28552;51.146;6.576;2022-07-29T02:20:28;17.90;88.70
42907;DHT22;28552;51.146;6.576;2022-07-29T02:23:30;17.90;88.70
42907;DHT22;28552;51.146;6.576;2022-07-29T02:26:33;17.90;88.50
42907;DHT22;28552;51.146;6.576;2022-07-29T02:29:35;17.90;89.00
42907;DHT22;28552;51.146;6.576;2022-07-29T02:32:39;17.80;89.90
42907;DHT22;28552;51.146;6.576;2022-07-29T02:35:41;17.50;93.80
42907;DHT22;28552;51.146;6.576;2022-07-29T02:38:44;17.00;96.70
42907;DHT22;28552;51.146;6.576;2022-07-29T02:41:57;16.50;99.90
42907;DHT22;28552;51.146;6.576;2022-07-29T02:44:59;16.10;99.90
42907;DHT22;28552;51.146;6.576;2022-07-29T02:48:05;15.90;99.90
42907;DHT22;28552;51.146;6.576;2022-07-29T02:51:09;15.70;99.90
42907;DHT22;28552;51.146;6.576;2022-07-29T02:54:19;15.60;99.90
42907;DHT22;28552;51.146;6.576;2022-07-29T02:57:27;15.60;99.90
42907;DHT22;28552;51.146;6.576;2022-07-29T03:00:31;15.50;99.90
42907;DHT22;28552;51.146;6.576;2022-07-29T03:03:37;15.50;99.90
42907;DHT22;28552;51.146;6.576;2022-07-29T03:06:40;15.50;99.90
42907;DHT22;28552;51.146;6.576;2022-07-29T03:09:41;15.50;99.90
42907;DHT22;28552;51.146;6.576;2022-07-29T03:12:43;15.50;99.90
42907;DHT22;28552;51.146;6.576;2022-07-29T03:15:44;15.50;99.90
42907;DHT22;28552;51.146;6.576;2022-07-29T03:18:46;15.40;99.90
42907;DHT22;28552;51.146;6.576;2022-07-29T03:21:47;15.40;99.90
42907;DHT22;28552;51.146;6.576;2022-07-29T03:24:48;15.40;99.90
42907;DHT22;28552;51.146;6.576;2022-07-29T03:27:48;15.30;99.90
42907;DHT22;28552;51.146;6.576;2022-07-29T03:30:49;15.20;99.90
42907;DHT22;28552;51.146;6.576;2022-07-29T03:33:50;15.10;99.90
42907;DHT22;28552;51.146;6.576;2022-07-29T03:36:50;15.00;99.90
42907;DHT22;28552;51.146;6.576;2022-07-29T03:39:52;15.00;99.90
42907;DHT22;28552;51.146;6.576;2022-07-29T03:42:55;14.90;99.90
42907;DHT22;28552;51.146;6.576;2022-07-29T03:45:57;14.90;99.90
42907;DHT22;28552;51.146;6.576;2022-07-29T03:49:01;14.90;99.90
42907;DHT22;28552;51.146;6.576;2022-07-29T03:52:04;14.90;99.90
42907;DHT22;28552;51.146;6.576;2022-07-29T03:55:06;15.00;99.90
42907;DHT22;28552;51.146;6.576;2022-07-29T03:58:07;15.00;99.90
42907;DHT22;28552;51.146;6.576;2022-07-29T04:01:08;15.00;99.90
42907;DHT22;28552;51.146;6.576;2022-07-29T04:04:10;15.00;99.90
42907;DHT22;28552;51.146;6.576;2022-07-29T04:07:13;15.00;99.90
42907;DHT22;28552;51.146;6.576;2022-07-29T04:10:14;15.00;99.90
42907;DHT22;28552;51.146;6.576;2022-07-29T04:13:17;15.10;99.90
42907;DHT22;28552;51.146;6.576;2022-07-29T04:16:18;15.00;99.90
42907;DHT22;28552;51.146;6.576;2022-07-29T04:19:19;15.00;99.90
42907;DHT22;28552;51.146;6.576;2022-07-29T04:22:19;15.00;99.90
42907;DHT22;28552;51.146;6.576;2022-07-29T04:25:20;14.90;99.90
42907;DHT22;28552;51.146;6.576;2022-07-29T04:28:21;14.90;99.90
42907;DHT22;28552;51.146;6.576;2022-07-29T04:31:21;14.90;99.90
42907;DHT22;28552;51.146;6.576;2022-07-29T04:34:22;15.00;99.90
42907;DHT22;28552;51.146;6.576;2022-07-29T04:37:22;15.00;99.90
42907;DHT22;28552;51.146;6.576;2022-07-29T04:40:23;15.00;99.90
42907;DHT22;28552;51.146;6.576;2022-07-29T04:43:23;15.00;99.90
42907;DHT22;28552;51.146;6.576;2022-07-29T04:46:24;15.10;99.90
42907;DHT22;28552;51.146;6.576;2022-07-29T04:49:25;15.10;99.90
42907;DHT22;28552;51.146;6.576;2022-07-29T04:52:26;15.20;99.90
42907;DHT22;28552;51.146;6.576;2022-07-29T04:55:26;15.20;99.90
42907;DHT22;28552;51.146;6.576;2022-07-29T04:58:27;15.30;99.90
42907;DHT22;28552;51.146;6.576;2022-07-29T05:01:27;15.40;99.90
42907;DHT22;28552;51.146;6.576;2022-07-29T05:04:28;15.50;99.90
42907;DHT22;28552;51.146;6.576;2022-07-29T05:07:28;15.60;99.90
42907;DHT22;28552;51.146;6.576;2022-07-29T05:10:29;15.60;99.90
42907;DHT22;28552;51.146;6.576;2022-07-29T05:13:30;15.60;99.90
42907;DHT22;28552;51.146;6.576;2022-07-29T05:16:30;15.70;99.90
42907;DHT22;28552;51.146;6.576;2022-07-29T05:19:31;15.70;99.90
42907;DHT22;28552;51.146;6.576;2022-07-29T05:22:32;15.70;99.90
42907;DHT22;28552;51.146;6.576;2022-07-29T05:25:32;15.70;99.90
42907;DHT22;28552;51.146;6.576;2022-07-29T05:28:34;15.80;99.90
42907;DHT22;28552;51.146;6.576;2022-07-29T05:31:35;15.80;99.90
42907;DHT22;28552;51.146;6.576;2022-07-29T05:34:35;15.80;99.90
42907;DHT22;28552;51.146;6.576;2022-07-29T05:37:36;15.90;99.90
42907;DHT22;28552;51.146;6.576;2022-07-29T05:40:36;15.90;99.90
42907;DHT22;28552;51.146;6.576;2022-07-29T05:43:37;15.90;99.90
42907;DHT22;28552;51.146;6.576;2022-07-29T05:46:37;16.00;99.90
42907;DHT22;28552;51.146;6.576;2022-07-29T05:49:38;16.00;99.90
42907;DHT22;28552;51.146;6.576;2022-07-29T05:52:39;16.10;99.90
42907;DHT22;28552;51.146;6.576;2022-07-29T05:55:39;16.10;99.90
42907;DHT22;28552;51.146;6.576;2022-07-29T05:58:40;16.10;99.90
42907;DHT22;28552;51.146;6.576;2022-07-29T06:01:40;16.20;99.90
42907;DHT22;28552;51.146;6.576;2022-07-29T06:04:42;16.20;99.90
42907;DHT22;28552;51.146;6.576;2022-07-29T06:07:42;16.20;99.90
42907;DHT22;28552;51.146;6.576;2022-07-29T06:10:43;16.20;99.90
42907;DHT22;28552;51.146;6.576;2022-07-29T06:13:44;16.20;99.90
42907;DHT22;28552;51.146;6.576;2022-07-29T06:16:45;16.20;99.90
42907;DHT22;28552;51.146;6.576;2022-07-29T06:19:45;16.20;99.90
42907;DHT22;28552;51.146;6.576;2022-07-29T06:22:46;16.20;99.90
42907;DHT22;28552;51.146;6.576;2022-07-29T06:25:47;16.20;99.90
42907;DHT22;28552;51.146;6.576;2022-07-29T06:28:47;16.30;99.90
42907;DHT22;28552;51.146;6.576;2022-07-29T06:31:48;16.30;99.90
42907;DHT22;28552;51.146;6.576;2022-07-29T06:34:49;16.30;99.90
42907;DHT22;28552;51.146;6.576;2022-07-29T06:37:49;16.20;99.90
42907;DHT22;28552;51.146;6.576;2022-07-29T06:40:50;16.20;99.90
42907;DHT22;28552;51.146;6.576;2022-07-29T06:44:05;16.20;99.90
42907;DHT22;28552;51.146;6.576;2022-07-29T06:47:06;16.10;99.90
42907;DHT22;28552;51.146;6.576;2022-07-29T06:50:07;16.10;99.90
42907;DHT22;28552;51.146;6.576;2022-07-29T06:53:11;16.00;99.90
42907;DHT22;28552;51.146;6.576;2022-07-29T06:56:12;16.00;99.90
42907;DHT22;28552;51.146;6.576;2022-07-29T06:59:14;16.00;99.90
42907;DHT22;28552;51.146;6.576;2022-07-29T07:02:14;16.00;99.90
42907;DHT22;28552;51.146;6.576;2022-07-29T07:05:15;16.00;99.90
42907;DHT22;28552;51.146;6.576;2022-07-29T07:08:15;16.00;99.90
42907;DHT22;28552;51.146;6.576;2022-07-29T07:11:16;16.00;99.90
42907;DHT22;28552;51.146;6.576;2022-07-29T07:14:17;15.90;99.90
42907;DHT22;28552;51.146;6.576;2022-07-29T07:17:17;16.00;99.90
42907;DHT22;28552;51.146;6.576;2022-07-29T07:20:18;16.00;99.90
42907;DHT22;28552;51.146;6.576;2022-07-29T07:23:19;16.10;99.90
42907;DHT22;28552;51.146;6.576;2022-07-29T07:26:19;16.10;99.90
42907;DHT22;28552;51.146;6.576;2022-07-29T07:29:20;16.20;99.90
42907;DHT22;28552;51.146;6.576;2022-07-29T07:32:21;16.40;99.90
42907;DHT22;28552;51.146;6.576;2022-07-29T07:35:21;16.50;99.90
42907;DHT22;28552;51.146;6.576;2022-07-29T07:38:22;16.60;99.90
42907;DHT22;28552;51.146;6.576;2022-07-29T07:41:22;16.70;99.90
42907;DHT22;28552;51.146;6.576;2022-07-29T07:44:23;16.70;99.90
42907;DHT22;28552;51.146;6.576;2022-07-29T07:47:23;16.80;99.90
42907;DHT22;28552;51.146;6.576;2022-07-29T07:50:24;16.80;99.90
42907;DHT22;28552;51.146;6.576;2022-07-29T07:53:25;16.80;99.90
42907;DHT22;28552;51.146;6.576;2022-07-29T07:56:25;16.80;99.90
42907;DHT22;28552;51.146;6.576;2022-07-29T07:59:26;16.80;99.90
42907;DHT22;28552;51.146;6.576;2022-07-29T08:02:27;16.80;99.90
42907;DHT22;28552;51.146;6.576;2022-07-29T08:05:27;16.80;99.90
42907;DHT22;28552;51.146;6.576;2022-07-29T08:08:28;16.80;99.90
42907;DHT22;28552;51.146;6.576;2022-07-29T08:11:28;16.90;99.90
42907;DHT22;28552;51.146;6.576;2022-07-29T08:14:30;16.90;99.90
42907;DHT22;28552;51.146;6.576;2022-07-29T08:17:31;16.90;99.90
42907;DHT22;28552;51.146;6.576;2022-07-29T08:20:31;16.90;99.90
42907;DHT22;28552;51.146;6.576;2022-07-29T08:23:33;16.90;99.90
42907;DHT22;28552;51.146;6.576;2022-07-29T08:26:39;16.90;99.90
42907;DHT22;28552;51.146;6.576;2022-07-29T08:29:40;16.90;99.90
42907;DHT22;28552;51.146;6.576;2022-07-29T08:32:40;17.00;99.90
42907;DHT22;28552;51.146;6.576;2022-07-29T08:35:41;17.00;99.90
42907;DHT22;28552;51.146;6.576;2022-07-29T08:38:42;17.10;99.90
42907;DHT22;28552;51.146;6.576;2022-07-29T08:41:42;17.10;99.90
42907;DHT22;28552;51.146;6.576;2022-07-29T08:44:43;17.10;99.90
42907;DHT22;28552;51.146;6.576;2022-07-29T08:47:45;17.20;99.90
42907;DHT22;28552;51.146;6.576;2022-07-29T08:50:47;17.20;99.90
42907;DHT22;28552;51.146;6.576;2022-07-29T08:53:49;17.30;99.90
42907;DHT22;28552;51.146;6.576;2022-07-29T08:56:50;17.40;99.90
42907;DHT22;28552;51.146;6.576;2022-07-29T08:59:52;17.50;99.90
42907;DHT22;28552;51.146;6.576;2022-07-29T09:02:57;17.60;99.90
42907;DHT22;28552;51.146;6.576;2022-07-29T09:05:59;17.80;99.90
42907;DHT22;28552;51.146;6.576;2022-07-29T09:09:00;17.90;99.90
42907;DHT22;28552;51.146;6.576;2022-07-29T09:12:01;18.00;99.90
42907;DHT22;28552;51.146;6.576;2022-07-29T09:15:04;18.10;99.90
42907;DHT22;28552;51.146;6.576;2022-07-29T09:18:05;18.20;99.90
42907;DHT22;28552;51.146;6.576;2022-07-29T09:21:07;18.30;99.90
42907;DHT22;28552;51.146;6.576;2022-07-29T09:24:23;18.40;99.90
42907;DHT22;28552;51.146;6.576;2022-07-29T09:27:25;18.70;99.90
42907;DHT22;28552;51.146;6.576;2022-07-29T09:30:26;19.10;99.90
42907;DHT22;28552;51.146;6.576;2022-07-29T09:33:34;19.30;99.90
42907;DHT22;28552;51.146;6.576;2022-07-29T09:36:46;19.40;99.90
42907;DHT22;28552;51.146;6.576;2022-07-29T09:39:47;19.40;99.90
42907;DHT22;28552;51.146;6.576;2022-07-29T09:42:47;19.40;99.90
42907;DHT22;28552;51.146;6.576;2022-07-29T09:45:48;19.30;99.90
42907;DHT22;28552;51.146;6.576;2022-07-29T09:49:07;19.30;99.90
42907;DHT22;28552;51.146;6.576;2022-07-29T09:52:09;19.20;99.90
42907;DHT22;28552;51.146;6.576;2022-07-29T09:55:11;19.20;99.90
42907;DHT22;28552;51.146;6.576;2022-07-29T09:58:19;19.30;99.90
42907;DHT22;28552;51.146;6.576;2022-07-29T10:01:28;19.40;99.90
42907;DHT22;28552;51.146;6.576;2022-07-29T10:04:43;19.40;99.90
42907;DHT22;28552;51.146;6.576;2022-07-29T10:07:47;19.40;99.90
42907;DHT22;28552;51.146;6.576;2022-07-29T10:10:47;19.40;99.90
42907;DHT22;28552;51.146;6.576;2022-07-29T10:13:48;19.40;99.90
42907;DHT22;28552;51.146;6.576;2022-07-29T10:16:49;19.50;99.90
42907;DHT22;28552;51.146;6.576;2022-07-29T10:19:49;19.60;99.90
42907;DHT22;28552;51.146;6.576;2022-07-29T10:22:51;19.60;99.90
42907;DHT22;28552;51.146;6.576;2022-07-29T10:25:51;19.60;99.90
42907;DHT22;28552;51.146;6.576;2022-07-29T10:28:52;19.60;99.90
42907;DHT22;28552;51.146;6.576;2022-07-29T10:31:58;19.70;99.90
42907;DHT22;28552;51.146;6.576;2022-07-29T10:35:29;19.70;99.90
42907;DHT22;28552;51.146;6.576;2022-07-29T10:41:59;19.90;99.90
42907;DHT22;28552;51.146;6.576;2022-07-29T10:45:03;20.00;99.90
42907;DHT22;28552;51.146;6.576;2022-07-29T10:48:05;20.10;99.90
42907;DHT22;28552;51.146;6.576;2022-07-29T10:51:06;20.20;99.90
42907;DHT22;28552;51.146;6.576;2022-07-29T10:54:08;20.20;99.90
42907;DHT22;28552;51.146;6.576;2022-07-29T10:57:16;20.30;99.90
42907;DHT22;28552;51.146;6.576;2022-07-29T11:03:43;20.50;99.90
42907;DHT22;28552;51.146;6.576;2022-07-29T11:07:06;20.60;99.90
42907;DHT22;28552;51.146;6.576;2022-07-29T11:10:26;20.90;99.90
42907;DHT22;28552;51.146;6.576;2022-07-29T11:17:01;21.30;99.90
42907;DHT22;28552;51.146;6.576;2022-07-29T11:23:33;21.70;99.90
42907;DHT22;28552;51.146;6.576;2022-07-29T11:26:36;21.70;99.90
42907;DHT22;28552;51.146;6.576;2022-07-29T11:29:41;21.70;99.90
42907;DHT22;28552;51.146;6.576;2022-07-29T11:32:47;21.60;99.90
42907;DHT22;28552;51.146;6.576;2022-07-29T11:39:25;21.50;99.90
42907;DHT22;28552;51.146;6.576;2022-07-29T11:45:45;21.40;99.90
42907;DHT22;28552;51.146;6.576;2022-07-29T11:48:46;21.40;99.90
42907;DHT22;28552;51.146;6.576;2022-07-29T11:51:56;21.50;99.90
42907;DHT22;28552;51.146;6.576;2022-07-29T11:54:56;21.60;99.90
42907;DHT22;28552;51.146;6.576;2022-07-29T11:57:59;21.60;99.90
42907;DHT22;28552;51.146;6.576;2022-07-29T12:01:00;21.60;99.90
42907;DHT22;28552;51.146;6.576;2022-07-29T12:04:04;21.60;99.90
42907;DHT22;28552;51.146;6.576;2022-07-29T12:07:04;21.70;99.90
42907;DHT22;28552;51.146;6.576;2022-07-29T12:10:06;21.90;99.90
42907;DHT22;28552;51.146;6.576;2022-07-29T12:13:07;22.00;99.90
42907;DHT22;28552;51.146;6.576;2022-07-29T12:16:08;22.10;99.90
42907;DHT22;28552;51.146;6.576;2022-07-29T12:19:09;22.00;99.90
42907;DHT22;28552;51.146;6.576;2022-07-29T12:22:09;22.10;99.90
42907;DHT22;28552;51.146;6.576;2022-07-29T12:25:12;22.20;99.90
42907;DHT22;28552;51.146;6.576;2022-07-29T12:28:14;22.20;99.90
42907;DHT22;28552;51.146;6.576;2022-07-29T12:31:18;22.20;99.90
42907;DHT22;28552;51.146;6.576;2022-07-29T12:34:20;22.20;99.90
42907;DHT22;28552;51.146;6.576;2022-07-29T12:37:22;22.20;99.90
42907;DHT22;28552;51.146;6.576;2022-07-29T12:40:23;22.30;99.90
42907;DHT22;28552;51.146;6.576;2022-07-29T12:43:24;22.40;99.90
42907;DHT22;28552;51.146;6.576;2022-07-29T12:46:25;22.50;99.90
42907;DHT22;28552;51.146;6.576;2022-07-29T12:49:26;22.60;99.90
42907;DHT22;28552;51.146;6.576;2022-07-29T12:52:32;22.70;99.90
42907;DHT22;28552;51.146;6.576;2022-07-29T12:55:43;22.70;99.90
42907;DHT22;28552;51.146;6.576;2022-07-29T12:58:43;22.90;99.90
42907;DHT22;28552;51.146;6.576;2022-07-29T13:01:46;23.00;99.90
42907;DHT22;28552;51.146;6.576;2022-07-29T13:04:57;23.20;99.90
42907;DHT22;28552;51.146;6.576;2022-07-29T13:08:10;23.20;99.90
42907;DHT22;28552;51.146;6.576;2022-07-29T13:11:27;23.30;99.90
42907;DHT22;28552;51.146;6.576;2022-07-29T13:14:40;23.40;99.90
42907;DHT22;28552;51.146;6.576;2022-07-29T13:17:43;23.50;99.90
42907;DHT22;28552;51.146;6.576;2022-07-29T13:20:43;23.60;99.90
42907;DHT22;28552;51.146;6.576;2022-07-29T13:23:44;23.70;99.90
42907;DHT22;28552;51.146;6.576;2022-07-29T13:26:44;23.70;99.90
42907;DHT22;28552;51.146;6.576;2022-07-29T13:29:45;23.70;99.90
42907;DHT22;28552;51.146;6.576;2022-07-29T13:32:46;23.70;99.90
42907;DHT22;28552;51.146;6.576;2022-07-29T13:35:47;23.50;99.90
42907;DHT22;28552;51.146;6.576;2022-07-29T13:38:48;23.50;99.90
42907;DHT22;28552;51.146;6.576;2022-07-29T13:41:48;23.50;99.90
42907;DHT22;28552;51.146;6.576;2022-07-29T13:44:49;23.50;99.90
42907;DHT22;28552;51.146;6.576;2022-07-29T13:47:51;23.50;99.90
42907;DHT22;28552;51.146;6.576;2022-07-29T13:50:52;23.50;99.80
42907;DHT22;28552;51.146;6.576;2022-07-29T13:53:53;23.60;99.30
42907;DHT22;28552;51.146;6.576;2022-07-29T13:56:53;23.60;99.10
42907;DHT22;28552;51.146;6.576;2022-07-29T13:59:54;23.70;98.60
42907;DHT22;28552;51.146;6.576;2022-07-29T14:02:54;23.70;98.30
42907;DHT22;28552;51.146;6.576;2022-07-29T14:05:55;23.70;97.90
42907;DHT22;28552;51.146;6.576;2022-07-29T14:08:56;23.80;97.70
42907;DHT22;28552;51.146;6.576;2022-07-29T14:11:57;23.70;97.10
42907;DHT22;28552;51.146;6.576;2022-07-29T14:14:57;23.80;97.10
42907;DHT22;28552;51.146;6.576;2022-07-29T14:17:58;23.80;96.20
42907;DHT22;28552;51.146;6.576;2022-07-29T14:20:59;23.90;95.40
42907;DHT22;28552;51.146;6.576;2022-07-29T14:23:59;23.80;95.60
42907;DHT22;28552;51.146;6.576;2022-07-29T14:27:00;23.90;94.60
42907;DHT22;28552;51.146;6.576;2022-07-29T14:30:00;23.90;94.60
42907;DHT22;28552;51.146;6.576;2022-07-29T14:33:01;24.10;93.90
42907;DHT22;28552;51.146;6.576;2022-07-29T14:36:02;24.20;93.30
42907;DHT22;28552;51.146;6.576;2022-07-29T14:39:03;24.20;92.00
42907;DHT22;28552;51.146;6.576;2022-07-29T14:42:04;24.10;90.50
42907;DHT22;28552;51.146;6.576;2022-07-29T14:45:06;24.10;90.80
42907;DHT22;28552;51.146;6.576;2022-07-29T14:48:07;24.10;90.90
42907;DHT22;28552;51.146;6.576;2022-07-29T14:51:07;24.10;90.60
42907;DHT22;28552;51.146;6.576;2022-07-29T14:54:08;24.20;89.90
42907;DHT22;28552;51.146;6.576;2022-07-29T14:57:09;24.30;89.50
42907;DHT22;28552;51.146;6.576;2022-07-29T15:00:10;24.40;87.10
42907;DHT22;28552;51.146;6.576;2022-07-29T15:03:11;24.40;85.90
42907;DHT22;28552;51.146;6.576;2022-07-29T15:06:12;24.50;85.90
42907;DHT22;28552;51.146;6.576;2022-07-29T15:09:13;24.50;85.20
42907;DHT22;28552;51.146;6.576;2022-07-29T15:12:13;24.50;85.50
42907;DHT22;28552;51.146;6.576;2022-07-29T15:15:14;24.50;85.70
42907;DHT22;28552;51.146;6.576;2022-07-29T15:18:14;24.40;85.20
42907;DHT22;28552;51.146;6.576;2022-07-29T15:21:15;24.30;85.20
42907;DHT22;28552;51.146;6.576;2022-07-29T15:24:17;24.10;86.30
42907;DHT22;28552;51.146;6.576;2022-07-29T15:27:17;24.10;87.90
42907;DHT22;28552;51.146;6.576;2022-07-29T15:30:18;24.00;88.90
42907;DHT22;28552;51.146;6.576;2022-07-29T15:33:18;24.00;90.40
42907;DHT22;28552;51.146;6.576;2022-07-29T15:36:19;24.00;90.30
42907;DHT22;28552;51.146;6.576;2022-07-29T15:39:20;24.00;90.50
42907;DHT22;28552;51.146;6.576;2022-07-29T15:42:22;24.10;90.60
42907;DHT22;28552;51.146;6.576;2022-07-29T15:45:22;24.10;90.90
42907;DHT22;28552;51.146;6.576;2022-07-29T15:48:23;24.00;91.10
42907;DHT22;28552;51.146;6.576;2022-07-29T15:51:23;24.00;91.40
42907;DHT22;28552;51.146;6.576;2022-07-29T15:54:24;24.00;91.60
42907;DHT22;28552;51.146;6.576;2022-07-29T15:57:25;24.10;91.90
42907;DHT22;28552;51.146;6.576;2022-07-29T16:00:26;24.20;92.00
42907;DHT22;28552;51.146;6.576;2022-07-29T16:03:26;24.30;91.80
42907;DHT22;28552;51.146;6.576;2022-07-29T16:06:27;24.20;91.30
42907;DHT22;28552;51.146;6.576;2022-07-29T16:09:27;24.10;91.30
42907;DHT22;28552;51.146;6.576;2022-07-29T16:12:28;24.10;91.40
42907;DHT22;28552;51.146;6.576;2022-07-29T16:15:28;24.10;91.40
42907;DHT22;28552;51.146;6.576;2022-07-29T16:18:29;24.10;91.60
42907;DHT22;28552;51.146;6.576;2022-07-29T16:21:31;24.10;91.20
42907;DHT22;28552;51.146;6.576;2022-07-29T16:24:31;24.10;91.30
42907;DHT22;28552;51.146;6.576;2022-07-29T16:27:32;24.10;91.40
42907;DHT22;28552;51.146;6.576;2022-07-29T16:30:34;24.10;91.30
42907;DHT22;28552;51.146;6.576;2022-07-29T16:33:35;24.20;91.40
42907;DHT22;28552;51.146;6.576;2022-07-29T16:36:35;24.20;91.20
42907;DHT22;28552;51.146;6.576;2022-07-29T16:39:36;24.30;91.80
42907;DHT22;28552;51.146;6.576;2022-07-29T16:42:36;24.40;91.40
42907;DHT22;28552;51.146;6.576;2022-07-29T16:45:37;24.50;91.20
42907;DHT22;28552;51.146;6.576;2022-07-29T16:48:38;24.70;91.70
42907;DHT22;28552;51.146;6.576;2022-07-29T16:51:38;24.80;90.90
42907;DHT22;28552;51.146;6.576;2022-07-29T16:54:39;25.00;91.50
42907;DHT22;28552;51.146;6.576;2022-07-29T16:57:40;25.20;90.40
42907;DHT22;28552;51.146;6.576;2022-07-29T17:00:42;25.20;89.20
42907;DHT22;28552;51.146;6.576;2022-07-29T17:03:42;25.30;87.40
42907;DHT22;28552;51.146;6.576;2022-07-29T17:06:58;25.30;86.00
42907;DHT22;28552;51.146;6.576;2022-07-29T17:09:58;25.30;86.70
42907;DHT22;28552;51.146;6.576;2022-07-29T17:12:59;25.30;85.20
42907;DHT22;28552;51.146;6.576;2022-07-29T17:16:00;25.30;85.00
42907;DHT22;28552;51.146;6.576;2022-07-29T17:19:00;25.40;85.00
42907;DHT22;28552;51.146;6.576;2022-07-29T17:22:04;25.70;85.00
42907;DHT22;28552;51.146;6.576;2022-07-29T17:25:07;26.00;83.30
42907;DHT22;28552;51.146;6.576;2022-07-29T17:28:08;26.00;82.50
42907;DHT22;28552;51.146;6.576;2022-07-29T17:31:08;26.00;82.60
42907;DHT22;28552;51.146;6.576;2022-07-29T17:34:09;26.10;82.70
42907;DHT22;28552;51.146;6.576;2022-07-29T17:37:11;26.00;82.30
42907;DHT22;28552;51.146;6.576;2022-07-29T17:40:11;25.80;82.00
42907;DHT22;28552;51.146;6.576;2022-07-29T17:43:12;25.60;82.70
42907;DHT22;28552;51.146;6.576;2022-07-29T17:46:13;25.70;82.20
42907;DHT22;28552;51.146;6.576;2022-07-29T17:49:13;25.60;81.60
42907;DHT22;28552;51.146;6.576;2022-07-29T17:52:14;25.60;82.40
42907;DHT22;28552;51.146;6.576;2022-07-29T17:55:17;25.40;82.60
42907;DHT22;28552;51.146;6.576;2022-07-29T17:58:18;25.20;83.10
42907;DHT22;28552;51.146;6.576;2022-07-29T18:01:18;24.90;83.50
42907;DHT22;28552;51.146;6.576;2022-07-29T18:04:20;24.70;84.20
42907;DHT22;28552;51.146;6.576;2022-07-29T18:07:22;24.40;84.80
42907;DHT22;28552;51.146;6.576;2022-07-29T18:10:23;24.20;85.80
42907;DHT22;28552;51.146;6.576;2022-07-29T18:13:24;23.90;87.00
42907;DHT22;28552;51.146;6.576;2022-07-29T18:16:25;23.70;87.90
42907;DHT22;28552;51.146;6.576;2022-07-29T18:19:26;23.50;89.00
42907;DHT22;28552;51.146;6.576;2022-07-29T18:22:27;23.40;90.00
42907;DHT22;28552;51.146;6.576;2022-07-29T18:25:28;23.30;90.50
42907;DHT22;28552;51.146;6.576;2022-07-29T18:28:29;23.20;90.90
42907;DHT22;28552;51.146;6.576;2022-07-29T18:31:31;23.20;91.20
42907;DHT22;28552;51.146;6.576;2022-07-29T18:34:31;23.20;91.60
42907;DHT22;28552;51.146;6.576;2022-07-29T18:37:32;23.20;92.00
42907;DHT22;28552;51.146;6.576;2022-07-29T18:40:34;23.20;92.50
42907;DHT22;28552;51.146;6.576;2022-07-29T18:43:34;23.20;92.80
42907;DHT22;28552;51.146;6.576;2022-07-29T18:46:35;23.20;93.50
42907;DHT22;28552;51.146;6.576;2022-07-29T18:49:36;23.10;93.60
42907;DHT22;28552;51.146;6.576;2022-07-29T18:52:36;23.00;94.00
42907;DHT22;28552;51.146;6.576;2022-07-29T18:55:37;23.00;94.50
42907;DHT22;28552;51.146;6.576;2022-07-29T18:58:37;22.90;95.00
42907;DHT22;28552;51.146;6.576;2022-07-29T19:01:38;22.70;95.30
42907;DHT22;28552;51.146;6.576;2022-07-29T19:04:39;22.70;95.50
42907;DHT22;28552;51.146;6.576;2022-07-29T19:07:40;22.60;95.80
42907;DHT22;28552;51.146;6.576;2022-07-29T19:10:41;22.50;96.10
42907;DHT22;28552;51.146;6.576;2022-07-29T19:13:41;22.40;96.20
42907;DHT22;28552;51.146;6.576;2022-07-29T19:16:42;22.40;96.20
42907;DHT22;28552;51.146;6.576;2022-07-29T19:19:42;22.40;96.40
42907;DHT22;28552;51.146;6.576;2022-07-29T19:22:43;22.30;96.50
42907;DHT22;28552;51.146;6.576;2022-07-29T19:25:44;22.30;96.80
42907;DHT22;28552;51.146;6.576;2022-07-29T19:28:46;22.20;97.20
42907;DHT22;28552;51.146;6.576;2022-07-29T19:31:46;22.10;97.60
42907;DHT22;28552;51.146;6.576;2022-07-29T19:34:47;22.00;97.90
42907;DHT22;28552;51.146;6.576;2022-07-29T19:38:07;21.90;98.40